Time,TemperatureF,DewpointF,PressureIn,WindDirection,WindDirectionDegrees,WindSpeedMPH,WindSpeedGustMPH,Humidity,HourlyPrecipIn,Conditions,Clouds,dailyrainin,SoftwareType,DateUTC
2013-02-03 00:11:00,23.8,5.0,30.33,NW,310,2.0,4.0,45,0.00,,,0.00,weatherlink.com 1.10,2013-02-03 07:11:00,
2013-02-03 00:26:00,28.1,4.0,30.33,WNW,284,1.0,3.0,36,0.00,,,0.00,weatherlink.com 1.10,2013-02-03 07:26:00,
2013-02-03 00:41:00,27.4,4.0,30.32,WSW,240,0.0,2.0,37,0.00,,,0.00,weatherlink.com 1.10,2013-02-03 07:41:00,
2013-02-03 00:56:00,27.9,4.0,30.31,West,266,0.0,3.0,36,0.00,,,0.00,weatherlink.com 1.10,2013-02-03 07:56:00,
2013-02-03 01:11:00,26.2,4.0,30.31,West,280,0.0,1.0,39,0.00,,,0.00,weatherlink.com 1.10,2013-02-03 08:11:00,
2013-02-03 01:26:00,25.1,4.0,30.31,West,273,0.0,0.0,40,0.00,,,0.00,weatherlink.com 1.10,2013-02-03 08:26:00,
2013-02-03 01:41:00,23.8,4.0,30.30,West,261,2.0,4.0,43,0.00,,,0.00,weatherlink.com 1.10,2013-02-03 08:41:00,
2013-02-03 01:56:00,25.1,5.0,30.30,WSW,240,1.0,7.0,42,0.00,,,0.00,weatherlink.com 1.10,2013-02-03 08:56:00,
2013-02-03 02:11:00,27.0,5.0,30.29,SW,226,4.0,5.0,39,0.00,,,0.00,weatherlink.com 1.10,2013-02-03 09:11:00,
2013-02-03 02:26:00,27.1,4.0,30.28,West,265,0.0,5.0,38,0.00,,,0.00,weatherlink.com 1.10,2013-02-03 09:26:00,
2013-02-03 02:41:00,27.3,5.0,30.28,NNW,327,0.0,3.0,38,0.00,,,0.00,weatherlink.com 1.10,2013-02-03 09:41:00,
2013-02-03 02:56:00,26.3,4.0,30.27,SSW,212,0.0,2.0,38,0.00,,,0.00,weatherlink.com 1.10,2013-02-03 09:56:00,
2013-02-03 03:11:00,25.1,3.0,30.27,SW,228,1.0,1.0,38,0.00,,,0.00,weatherlink.com 1.10,2013-02-03 10:11:00,
2013-02-03 03:26:00,25.6,2.0,30.25,ESE,113,1.0,3.0,36,0.00,,,0.00,weatherlink.com 1.10,2013-02-03 10:26:00,
2013-02-03 03:41:00,25.2,1.0,30.25,East,98,0.0,2.0,35,0.00,,,0.00,weatherlink.com 1.10,2013-02-03 10:41:00,
2013-02-03 03:56:00,25.7,1.0,30.25,East,85,3.0,3.0,34,0.00,,,0.00,weatherlink.com 1.10,2013-02-03 10:56:00,
2013-02-03 04:11:00,22.8,1.0,30.25,West,271,1.0,1.0,38,0.00,,,0.00,weatherlink.com 1.10,2013-02-03 11:11:00,
2013-02-03 04:26:00,23.7,2.0,30.24,East,89,1.0,4.0,39,0.00,,,0.00,weatherlink.com 1.10,2013-02-03 11:26:00,
2013-02-03 04:41:00,23.4,0.0,30.23,NW,319,0.0,2.0,36,0.00,,,0.00,weatherlink.com 1.10,2013-02-03 11:41:00,
2013-02-03 04:56:00,24.6,-1.0,30.23,NNE,23,1.0,5.0,33,0.00,,,0.00,weatherlink.com 1.10,2013-02-03 11:56:00,
2013-02-03 05:12:00,23.5,1.0,30.23,WSW,238,2.0,3.0,37,0.00,,,0.00,weatherlink.com 1.10,2013-02-03 12:12:00,
2013-02-03 05:27:00,23.2,-1.0,30.23,SSW,197,1.0,3.0,35,0.00,,,0.00,weatherlink.com 1.10,2013-02-03 12:27:00,
2013-02-03 05:43:00,23.0,-1.0,30.23,NE,43,0.0,3.0,35,0.00,,,0.00,weatherlink.com 1.10,2013-02-03 12:43:00,
2013-02-03 05:57:00,24.4,-1.0,30.22,East,80,0.0,3.0,33,0.00,,,0.00,weatherlink.com 1.10,2013-02-03 12:57:00,
2013-02-03 06:12:00,22.4,-2.0,30.21,East,91,0.0,2.0,35,0.00,,,0.00,weatherlink.com 1.10,2013-02-03 13:12:00,
2013-02-03 06:27:00,20.9,-2.0,30.22,ESE,110,0.0,2.0,36,0.00,,,0.00,weatherlink.com 1.10,2013-02-03 13:27:00,
2013-02-03 06:42:00,20.5,-3.0,30.22,East,84,2.0,2.0,36,0.00,,,0.00,weatherlink.com 1.10,2013-02-03 13:42:00,
2013-02-03 06:57:00,21.7,-4.0,30.22,NE,42,0.0,3.0,32,0.00,,,0.00,weatherlink.com 1.10,2013-02-03 13:57:00,
2013-02-03 07:12:00,22.0,-3.0,30.21,SSW,200,0.0,0.0,33,0.00,,,0.00,weatherlink.com 1.10,2013-02-03 14:12:00,
2013-02-03 07:28:00,21.0,-5.0,30.21,NNW,343,0.0,3.0,32,0.00,,,0.00,weatherlink.com 1.10,2013-02-03 14:28:00,
2013-02-03 07:42:00,20.4,-4.0,30.21,ESE,121,1.0,2.0,34,0.00,,,0.00,weatherlink.com 1.10,2013-02-03 14:42:00,
2013-02-03 07:57:00,22.2,-7.0,30.21,West,276,1.0,2.0,27,0.00,,,0.00,weatherlink.com 1.10,2013-02-03 14:57:00,
2013-02-03 08:12:00,24.6,-4.0,30.20,ESE,113,0.0,4.0,28,0.00,,,0.00,weatherlink.com 1.10,2013-02-03 15:12:00,
2013-02-03 08:27:00,26.6,-8.0,30.20,NE,46,0.0,3.0,22,0.00,,,0.00,weatherlink.com 1.10,2013-02-03 15:27:00,
2013-02-03 08:42:00,30.8,-4.0,30.20,WSW,248,1.0,2.0,22,0.00,,,0.00,weatherlink.com 1.10,2013-02-03 15:42:00,
2013-02-03 08:57:00,34.1,-8.0,30.19,ENE,74,2.0,4.0,16,0.00,,,0.00,weatherlink.com 1.10,2013-02-03 15:57:00,
2013-02-03 09:12:00,36.7,-10.0,30.18,West,281,1.0,3.0,13,0.00,,,0.00,weatherlink.com 1.10,2013-02-03 16:12:00,
2013-02-03 09:27:00,38.4,-12.0,30.17,SW,219,2.0,9.0,11,0.00,,,0.00,weatherlink.com 1.10,2013-02-03 16:27:00,
2013-02-03 09:42:00,39.5,-11.0,30.15,NW,316,2.0,6.0,11,0.00,,,0.00,weatherlink.com 1.10,2013-02-03 16:42:00,
2013-02-03 09:57:00,40.1,-15.0,30.15,SSW,208,8.0,11.0,9,0.00,,,0.00,weatherlink.com 1.10,2013-02-03 16:57:00,
2013-02-03 10:12:00,40.7,-12.0,30.14,NW,311,9.0,15.0,10,0.00,,,0.00,weatherlink.com 1.10,2013-02-03 17:12:00,
2013-02-03 10:27:00,40.9,-14.0,30.13,West,279,3.0,14.0,9,0.00,,,0.00,weatherlink.com 1.10,2013-02-03 17:27:00,
2013-02-03 10:42:00,41.7,-11.0,30.12,WNW,284,4.0,16.0,10,0.00,,,0.00,weatherlink.com 1.10,2013-02-03 17:42:00,
2013-02-03 10:57:00,41.2,-12.0,30.11,WNW,300,20.0,28.0,10,0.00,,,0.00,weatherlink.com 1.10,2013-02-03 17:57:00,
2013-02-03 11:12:00,41.3,-8.0,30.11,West,281,22.0,24.0,12,0.00,,,0.00,weatherlink.com 1.10,2013-02-03 18:12:00,
2013-02-03 11:28:00,41.4,-10.0,30.09,WSW,246,20.0,24.0,11,0.00,,,0.00,weatherlink.com 1.10,2013-02-03 18:28:00,
2013-02-03 11:43:00,41.7,-8.0,30.07,WNW,295,20.0,24.0,12,0.00,,,0.00,weatherlink.com 1.10,2013-02-03 18:43:00,
2013-02-03 11:58:00,41.9,-8.0,30.06,SW,223,11.0,32.0,12,0.00,,,0.00,weatherlink.com 1.10,2013-02-03 18:58:00,
2013-02-03 12:13:00,41.8,-13.0,30.04,NW,306,18.0,30.0,9,0.00,,,0.00,weatherlink.com 1.10,2013-02-03 19:13:00,
2013-02-03 12:28:00,41.4,-10.0,30.03,NW,304,10.0,31.0,11,0.00,,,0.00,weatherlink.com 1.10,2013-02-03 19:28:00,
2013-02-03 12:43:00,42.2,-9.0,30.03,WNW,285,11.0,24.0,11,0.00,,,0.00,weatherlink.com 1.10,2013-02-03 19:43:00,
2013-02-03 12:58:00,41.8,-9.0,30.02,WSW,239,10.0,23.0,11,0.00,,,0.00,weatherlink.com 1.10,2013-02-03 19:58:00,
2013-02-03 13:14:00,41.7,-6.0,30.02,West,268,13.0,24.0,13,0.00,,,0.00,weatherlink.com 1.10,2013-02-03 20:14:00,
2013-02-03 13:28:00,41.1,-8.0,30.01,WNW,293,2.0,27.0,12,0.00,,,0.00,weatherlink.com 1.10,2013-02-03 20:28:00,
2013-02-03 13:43:00,40.5,-4.0,29.99,WSW,250,6.0,20.0,15,0.00,,,0.00,weatherlink.com 1.10,2013-02-03 20:43:00,
2013-02-03 13:58:00,39.8,-6.0,29.99,NNW,333,6.0,25.0,14,0.00,,,0.00,weatherlink.com 1.10,2013-02-03 20:58:00,
2013-02-03 14:13:00,38.9,-7.0,29.97,SSE,150,13.0,30.0,14,0.00,,,0.00,weatherlink.com 1.10,2013-02-03 21:13:00,
2013-02-03 14:28:00,38.5,-6.0,29.97,West,277,8.0,28.0,15,0.00,,,0.00,weatherlink.com 1.10,2013-02-03 21:28:00,
2013-02-03 14:43:00,38.4,-7.0,29.97,West,280,11.0,24.0,14,0.00,,,0.00,weatherlink.com 1.10,2013-02-03 21:43:00,
2013-02-03 14:58:00,38.1,-5.0,29.96,SW,222,9.0,33.0,16,0.00,,,0.00,weatherlink.com 1.10,2013-02-03 21:58:00,
2013-02-03 15:13:00,37.9,-5.0,29.97,West,276,16.0,27.0,16,0.00,,,0.00,weatherlink.com 1.10,2013-02-03 22:13:00,
2013-02-03 15:28:00,37.3,-3.0,29.97,WSW,243,3.0,20.0,18,0.00,,,0.00,weatherlink.com 1.10,2013-02-03 22:28:00,
2013-02-03 15:43:00,36.6,-2.0,29.99,South,190,3.0,26.0,19,0.00,,,0.00,weatherlink.com 1.10,2013-02-03 22:43:00,
2013-02-03 15:58:00,36.0,-2.0,30.00,WNW,289,14.0,17.0,20,0.00,,,0.00,weatherlink.com 1.10,2013-02-03 22:58:00,
2013-02-03 16:13:00,35.6,-1.0,30.00,NE,56,2.0,7.0,21,0.00,,,0.00,weatherlink.com 1.10,2013-02-03 23:13:00,
2013-02-03 16:28:00,35.1,0.0,30.00,ENE,78,2.0,9.0,22,0.00,,,0.00,weatherlink.com 1.10,2013-02-03 23:28:00,
2013-02-03 16:43:00,34.7,-1.0,30.00,WNW,285,2.0,14.0,22,0.00,,,0.00,weatherlink.com 1.10,2013-02-03 23:43:00,
2013-02-03 16:58:00,34.3,1.0,29.99,SW,217,0.0,8.0,24,0.00,,,0.00,weatherlink.com 1.10,2013-02-03 23:58:00,
2013-02-03 17:13:00,33.6,2.0,29.99,ESE,105,6.0,9.0,26,0.00,,,0.00,weatherlink.com 1.10,2013-02-04 00:13:00,
2013-02-03 17:28:00,32.9,1.0,30.00,NW,323,3.0,8.0,26,0.00,,,0.00,weatherlink.com 1.10,2013-02-04 00:28:00,
2013-02-03 17:43:00,32.9,2.0,30.01,SSE,153,3.0,11.0,27,0.00,,,0.00,weatherlink.com 1.10,2013-02-04 00:43:00,
2013-02-03 17:58:00,32.1,2.0,30.02,ENE,68,1.0,5.0,28,0.00,,,0.00,weatherlink.com 1.10,2013-02-04 00:58:00,
2013-02-03 18:13:00,31.4,3.0,30.02,East,85,1.0,5.0,30,0.00,,,0.00,weatherlink.com 1.10,2013-02-04 01:13:00,
2013-02-03 18:28:00,31.4,3.0,30.03,SW,217,1.0,2.0,30,0.00,,,0.00,weatherlink.com 1.10,2013-02-04 01:28:00,
2013-02-03 18:43:00,31.2,4.0,30.03,NW,320,9.0,9.0,31,0.00,,,0.00,weatherlink.com 1.10,2013-02-04 01:43:00,
2013-02-03 18:58:00,31.6,4.0,30.03,WSW,246,5.0,8.0,31,0.00,,,0.00,weatherlink.com 1.10,2013-02-04 01:58:00,
2013-02-03 19:13:00,31.3,4.0,30.02,East,87,2.0,11.0,32,0.00,,,0.00,weatherlink.com 1.10,2013-02-04 02:13:00,
2013-02-03 19:28:00,30.6,5.0,30.00,WSW,239,3.0,10.0,33,0.00,,,0.00,weatherlink.com 1.10,2013-02-04 02:28:00,
2013-02-03 19:43:00,31.0,4.0,30.01,WSW,253,5.0,12.0,31,0.00,,,0.00,weatherlink.com 1.10,2013-02-04 02:43:00,
2013-02-03 19:58:00,31.0,5.0,30.02,SSE,165,4.0,10.0,33,0.00,,,0.00,weatherlink.com 1.10,2013-02-04 02:58:00,
2013-02-03 20:13:00,30.3,5.0,30.02,West,274,5.0,12.0,34,0.00,,,0.00,weatherlink.com 1.10,2013-02-04 03:13:00,
2013-02-03 20:28:00,30.1,5.0,30.01,West,270,4.0,13.0,34,0.00,,,0.00,weatherlink.com 1.10,2013-02-04 03:28:00,
2013-02-03 20:43:00,30.5,2.0,30.00,WNW,285,4.0,9.0,30,0.00,,,0.00,weatherlink.com 1.10,2013-02-04 03:43:00,
2013-02-03 20:58:00,30.2,4.0,30.02,SW,218,2.0,15.0,33,0.00,,,0.00,weatherlink.com 1.10,2013-02-04 03:58:00,
2013-02-03 21:13:00,29.3,5.0,30.01,WNW,284,8.0,13.0,36,0.00,,,0.00,weatherlink.com 1.10,2013-02-04 04:13:00,
2013-02-03 21:28:00,29.3,5.0,30.00,WSW,257,7.0,22.0,35,0.00,,,0.00,weatherlink.com 1.10,2013-02-04 04:28:00,
2013-02-03 21:43:00,29.0,4.0,30.02,WNW,290,1.0,18.0,34,0.00,,,0.00,weatherlink.com 1.10,2013-02-04 04:43:00,
2013-02-03 21:58:00,29.0,4.0,30.02,WSW,250,2.0,10.0,34,0.00,,,0.00,weatherlink.com 1.10,2013-02-04 04:58:00,
2013-02-03 22:13:00,28.6,3.0,30.02,NE,46,2.0,7.0,34,0.00,,,0.00,weatherlink.com 1.10,2013-02-04 05:13:00,
2013-02-03 22:28:00,28.1,5.0,30.01,WNW,290,4.0,12.0,37,0.00,,,0.00,weatherlink.com 1.10,2013-02-04 05:28:00,
2013-02-03 22:43:00,28.3,5.0,30.02,NW,309,6.0,18.0,37,0.00,,,0.00,weatherlink.com 1.10,2013-02-04 05:43:00,
2013-02-03 22:58:00,28.3,4.0,30.01,WNW,291,4.0,13.0,36,0.00,,,0.00,weatherlink.com 1.10,2013-02-04 05:58:00,
2013-02-03 23:13:00,28.4,3.0,30.01,West,261,7.0,13.0,33,0.00,,,0.00,weatherlink.com 1.10,2013-02-04 06:13:00,
2013-02-03 23:28:00,28.5,3.0,30.02,WSW,252,9.0,18.0,34,0.00,,,0.00,weatherlink.com 1.10,2013-02-04 06:28:00,
2013-02-03 23:43:00,28.3,2.0,30.04,WNW,291,6.0,16.0,32,0.00,,,0.00,weatherlink.com 1.10,2013-02-04 06:43:00,
2013-02-03 23:58:00,28.0,2.0,30.04,SW,217,4.0,15.0,32,0.00,,,0.00,weatherlink.com 1.10,2013-02-04 06:58:00,